Time;durP1;ratioP1;P1;durP2;ratioP2;P2;SDS_P1;SDS_P2;PMS_P1;PMS_P2;Temp;Humidity;BMP_temperature;BMP_pressure;BME280_temperature;BME280_humidity;BME280_pressure;Samples;Min_cycle;Max_cycle;Signal;HPM_P1;HPM_P2
2022/01/29 00:00:28;;;;;;;12.27;4.88;;;;;;;;;;5019806;28;20065;-46
2022/01/29 00:02:56;;;;;;;25.75;13.15;;;;;;;;;;5027773;28;20027;-46
2022/01/29 00:05:22;;;;;;;13.93;4.40;;;;;;;;;;5053726;28;20514;-46
2022/01/29 00:07:48;;;;;;;10.38;4.00;;;;;;;;;;5053483;28;20031;-47
2022/01/29 00:10:15;;;;;;;46.47;19.80;;;;;;;;;;5054072;28;20029;-47
2022/01/29 00:12:41;;;;;;;22.60;10.07;;;;;;;;;;5053158;28;20024;-46
2022/01/29 00:15:08;;;;;;;9.45;4.25;;;;;;;;;;5053463;28;20034;-45
2022/01/29 00:17:36;;;;;;;27.52;12.40;;;;;;;;;;5053345;28;20113;-46
2022/01/29 00:20:03;;;;;;;31.48;13.60;;;;;;;;;;5053299;28;20049;-47
2022/01/29 00:22:29;;;;;;;13.40;6.13;;;;;;;;;;5053224;28;20021;-47
2022/01/29 00:24:57;;;;;;;14.77;5.80;;;;;;;;;;5053182;28;20538;-47
2022/01/29 00:27:25;;;;;;;22.10;8.63;;;;;;;;;;5053161;28;20082;-46
2022/01/29 00:29:51;;;;;;;28.05;12.63;;;;;;;;;;5051208;28;20541;-47
2022/01/29 00:32:17;;;;;;;37.65;15.35;;;;;;;;;;5052680;28;20025;-45
2022/01/29 00:34:44;;;;;;;46.42;21.55;;;;;;;;;;5052727;28;20025;-45
2022/01/29 00:37:12;;;;;;;20.75;8.93;;;;;;;;;;5053209;28;20025;-47
2022/01/29 00:39:38;;;;;;;19.38;7.93;;;;;;;;;;5052876;28;20048;-47
2022/01/29 00:42:05;;;;;;;31.58;10.60;;;;;;;;;;5052875;28;20025;-46
2022/01/29 00:44:31;;;;;;;26.88;10.43;;;;;;;;;;5052415;28;20021;-48
2022/01/29 00:46:57;;;;;;;17.15;5.72;;;;;;;;;;5051854;28;20040;-48
2022/01/29 00:49:23;;;;;;;35.40;16.45;;;;;;;;;;5052702;28;20108;-45
2022/01/29 00:51:49;;;;;;;43.42;18.42;;;;;;;;;;5052862;28;20025;-46
2022/01/29 00:54:15;;;;;;;33.67;16.05;;;;;;;;;;5053169;28;20120;-48
2022/01/29 00:56:41;;;;;;;22.75;9.30;;;;;;;;;;5052386;28;20040;-46
2022/01/29 00:59:07;;;;;;;12.52;4.32;;;;;;;;;;5052595;28;20120;-46
2022/01/29 01:01:34;;;;;;;15.85;5.88;;;;;;;;;;5051795;28;20041;-46
2022/01/29 01:04:00;;;;;;;27.65;12.43;;;;;;;;;;5052494;28;20025;-46
2022/01/29 01:06:26;;;;;;;23.73;10.48;;;;;;;;;;5050018;28;20041;-46
2022/01/29 01:08:52;;;;;;;52.80;23.40;;;;;;;;;;5052145;28;20511;-47
2022/01/29 01:11:18;;;;;;;35.80;17.67;;;;;;;;;;5052456;28;20476;-47
2022/01/29 01:13:44;;;;;;;41.78;18.25;;;;;;;;;;5051970;28;20029;-47
2022/01/29 01:16:11;;;;;;;31.33;15.25;;;;;;;;;;5052556;28;20071;-47
2022/01/29 01:18:37;;;;;;;20.23;7.80;;;;;;;;;;5052152;28;20052;-47
2022/01/29 01:21:03;;;;;;;32.60;15.10;;;;;;;;;;5052137;28;20037;-48
2022/01/29 01:23:29;;;;;;;19.13;7.10;;;;;;;;;;5051990;28;20115;-47
2022/01/29 01:25:55;;;;;;;27.92;13.73;;;;;;;;;;5053128;28;20079;-48
2022/01/29 01:28:24;;;;;;;52.63;26.60;;;;;;;;;;5054638;28;20409;-46
2022/01/29 01:30:51;;;;;;;31.77;12.27;;;;;;;;;;5054881;28;20452;-46
2022/01/29 01:33:17;;;;;;;35.65;14.05;;;;;;;;;;5054671;28;20104;-48
2022/01/29 01:35:48;;;;;;;37.25;16.60;;;;;;;;;;5054631;28;20013;-46
2022/01/29 01:38:21;;;;;;;12.40;4.47;;;;;;;;;;5054585;28;20057;-47
2022/01/29 01:40:53;;;;;;;13.38;4.60;;;;;;;;;;5053258;28;20033;-50
2022/01/29 01:43:19;;;;;;;29.40;14.02;;;;;;;;;;5054615;28;20024;-47
2022/01/29 01:45:45;;;;;;;24.92;9.73;;;;;;;;;;5054448;28;20064;-48
2022/01/29 01:48:11;;;;;;;32.50;13.82;;;;;;;;;;5053087;28;20120;-49
2022/01/29 01:50:38;;;;;;;43.25;18.20;;;;;;;;;;5054346;28;20082;-47
2022/01/29 01:53:04;;;;;;;30.15;12.73;;;;;;;;;;5054340;28;20063;-47
2022/01/29 01:55:31;;;;;;;37.90;17.33;;;;;;;;;;5054366;28;20104;-50
2022/01/29 01:57:57;;;;;;;25.55;9.02;;;;;;;;;;5054309;28;20028;-47
2022/01/29 02:00:24;;;;;;;13.63;5.10;;;;;;;;;;5054127;28;20041;-49
2022/01/29 02:02:50;;;;;;;32.08;12.80;;;;;;;;;;5054143;28;20373;-47
2022/01/29 02:05:16;;;;;;;28.00;11.43;;;;;;;;;;5054179;28;20467;-49
2022/01/29 02:07:43;;;;;;;31.50;12.95;;;;;;;;;;5054030;28;20028;-46
2022/01/29 02:10:10;;;;;;;26.85;10.02;;;;;;;;;;5054133;28;20031;-48
2022/01/29 02:12:52;;;;;;;21.90;8.30;;;;;;;;;;5053805;28;20017;-49
2022/01/29 02:15:19;;;;;;;22.35;8.15;;;;;;;;;;5053970;28;20025;-47
2022/01/29 02:17:46;;;;;;;28.13;10.10;;;;;;;;;;5053997;28;20385;-47
2022/01/29 02:20:16;;;;;;;28.27;9.50;;;;;;;;;;5053767;28;20491;-47
2022/01/29 02:22:43;;;;;;;16.92;6.47;;;;;;;;;;5053840;28;20017;-47
2022/01/29 02:25:28;;;;;;;20.10;8.10;;;;;;;;;;5053917;28;20389;-47
2022/01/29 02:27:54;;;;;;;23.23;8.35;;;;;;;;;;5053586;28;20091;-49
2022/01/29 02:30:20;;;;;;;27.63;9.98;;;;;;;;;;5053608;28;20186;-48
2022/01/29 02:32:46;;;;;;;17.38;8.50;;;;;;;;;;5053653;28;20032;-46
2022/01/29 02:35:12;;;;;;;12.00;3.75;;;;;;;;;;5053499;28;20024;-48
2022/01/29 02:37:39;;;;;;;18.65;6.60;;;;;;;;;;5053595;28;20059;-47
2022/01/29 02:40:06;;;;;;;22.27;8.27;;;;;;;;;;5053417;28;20033;-48
2022/01/29 02:42:32;;;;;;;16.80;7.43;;;;;;;;;;5053443;28;20025;-48
2022/01/29 02:44:58;;;;;;;14.63;5.05;;;;;;;;;;5053392;28;20024;-48
2022/01/29 02:47:30;;;;;;;23.60;9.02;;;;;;;;;;5053517;28;20024;-49
2022/01/29 02:49:56;;;;;;;10.90;3.60;;;;;;;;;;5053207;28;20033;-49
2022/01/29 02:52:22;;;;;;;12.73;4.50;;;;;;;;;;5053323;28;20100;-48
2022/01/29 02:54:48;;;;;;;19.40;7.47;;;;;;;;;;5053419;28;20025;-49
2022/01/29 02:57:15;;;;;;;20.92;8.23;;;;;;;;;;5053035;28;20025;-46
2022/01/29 02:59:41;;;;;;;24.90;10.35;;;;;;;;;;5053070;28;20385;-53
2022/01/29 03:02:07;;;;;;;28.85;8.60;;;;;;;;;;5053238;28;20423;-49
2022/01/29 03:04:33;;;;;;;20.65;6.78;;;;;;;;;;5052959;28;20112;-46
2022/01/29 03:06:59;;;;;;;27.13;10.38;;;;;;;;;;5053086;28;20036;-47
2022/01/29 03:09:26;;;;;;;24.98;9.27;;;;;;;;;;5053239;28;20134;-49
2022/01/29 03:11:52;;;;;;;20.00;6.80;;;;;;;;;;5053021;28;20033;-47
2022/01/29 03:14:18;;;;;;;16.85;5.25;;;;;;;;;;5052992;28;20025;-49
2022/01/29 03:16:45;;;;;;;18.38;5.60;;;;;;;;;;5052988;28;20086;-47
2022/01/29 03:19:11;;;;;;;20.73;7.03;;;;;;;;;;5053049;28;20040;-47
2022/01/29 03:21:37;;;;;;;15.80;4.88;;;;;;;;;;5053095;28;20025;-49
2022/01/29 03:24:03;;;;;;;16.25;5.75;;;;;;;;;;5054624;28;20047;-48
2022/01/29 03:26:29;;;;;;;16.25;4.53;;;;;;;;;;5057389;28;20017;-47
2022/01/29 03:28:55;;;;;;;14.65;5.18;;;;;;;;;;5056858;28;20051;-47
2022/01/29 03:31:21;;;;;;;16.20;6.82;;;;;;;;;;5057104;28;20535;-46
2022/01/29 03:33:47;;;;;;;11.75;4.35;;;;;;;;;;5056999;28;20108;-47
2022/01/29 03:36:13;;;;;;;14.68;4.82;;;;;;;;;;5056816;28;20100;-46
2022/01/29 03:38:40;;;;;;;16.40;4.90;;;;;;;;;;5056845;28;20116;-46
2022/01/29 03:41:08;;;;;;;17.02;4.32;;;;;;;;;;5056882;28;20032;-47
2022/01/29 03:43:41;;;;;;;11.68;4.38;;;;;;;;;;5056821;28;20029;-48
2022/01/29 03:46:07;;;;;;;12.05;3.72;;;;;;;;;;5056758;28;20481;-47
2022/01/29 03:48:33;;;;;;;9.70;3.58;;;;;;;;;;5056750;28;20036;-48
2022/01/29 03:51:00;;;;;;;16.15;4.65;;;;;;;;;;5056898;28;20028;-49
2022/01/29 03:53:26;;;;;;;11.15;3.35;;;;;;;;;;5056912;28;20044;-48
2022/01/29 03:55:52;;;;;;;16.17;5.32;;;;;;;;;;5057026;28;20021;-50
2022/01/29 03:58:18;;;;;;;13.88;4.68;;;;;;;;;;5056586;28;20055;-47
2022/01/29 04:00:44;;;;;;;10.00;3.22;;;;;;;;;;5056346;28;20284;-48
2022/01/29 04:03:10;;;;;;;10.07;3.25;;;;;;;;;;5056611;28;20036;-49
2022/01/29 04:05:36;;;;;;;12.35;4.13;;;;;;;;;;5056403;28;20104;-49
2022/01/29 04:08:06;;;;;;;14.98;4.72;;;;;;;;;;5056420;28;20536;-47
2022/01/29 04:10:32;;;;;;;13.50;5.03;;;;;;;;;;5056403;28;20033;-48
2022/01/29 04:12:58;;;;;;;13.63;4.90;;;;;;;;;;5056503;28;20036;-46
2022/01/29 04:15:24;;;;;;;15.00;4.60;;;;;;;;;;5056317;28;20477;-46
2022/01/29 04:17:50;;;;;;;11.00;3.40;;;;;;;;;;5056379;28;20036;-46
2022/01/29 04:20:17;;;;;;;7.95;3.42;;;;;;;;;;5056000;28;20045;-48
2022/01/29 04:22:43;;;;;;;13.57;3.17;;;;;;;;;;5056264;28;20021;-49
2022/01/29 04:25:09;;;;;;;6.45;2.70;;;;;;;;;;5056053;28;20025;-46
2022/01/29 04:27:42;;;;;;;13.02;4.55;;;;;;;;;;5055840;28;20029;-46
2022/01/29 04:30:14;;;;;;;14.25;3.95;;;;;;;;;;5055895;28;20048;-48
2022/01/29 04:35:06;;;;;;;8.00;3.45;;;;;;;;;;5055428;28;20032;-48
2022/01/29 04:37:32;;;;;;;16.88;4.30;;;;;;;;;;5055841;28;20021;-48
2022/01/29 04:39:58;;;;;;;10.43;3.70;;;;;;;;;;5055826;28;20036;-49
2022/01/29 04:42:24;;;;;;;9.43;3.05;;;;;;;;;;5055762;28;20082;-48
2022/01/29 04:44:50;;;;;;;8.00;3.08;;;;;;;;;;5055713;28;20029;-48
2022/01/29 04:47:16;;;;;;;10.32;4.03;;;;;;;;;;5055596;28;20021;-48
2022/01/29 04:49:42;;;;;;;6.38;2.08;;;;;;;;;;5055523;28;20024;-50
2022/01/29 04:52:09;;;;;;;7.55;2.83;;;;;;;;;;5055765;28;20457;-48
2022/01/29 04:54:35;;;;;;;11.00;3.53;;;;;;;;;;5055535;28;20029;-48
2022/01/29 04:57:01;;;;;;;8.45;3.53;;;;;;;;;;5055472;28;20017;-47
2022/01/29 04:59:27;;;;;;;15.93;6.13;;;;;;;;;;5055175;28;20028;-47
2022/01/29 05:01:53;;;;;;;9.75;5.03;;;;;;;;;;5055527;28;20029;-47
2022/01/29 05:04:19;;;;;;;13.30;3.97;;;;;;;;;;5055396;28;20529;-47
2022/01/29 05:06:45;;;;;;;12.75;4.90;;;;;;;;;;5055272;28;20423;-47
2022/01/29 05:09:11;;;;;;;13.32;4.47;;;;;;;;;;5055295;28;20033;-46
2022/01/29 05:11:38;;;;;;;12.88;4.53;;;;;;;;;;5055282;28;20459;-47
2022/01/29 05:14:08;;;;;;;9.10;3.67;;;;;;;;;;5055056;28;20405;-47
2022/01/29 05:26:50;;;;;;;8.98;3.15;;;;;;;;;;5055275;28;20035;-48
2022/01/29 05:27:30;;;;;;;10.18;3.47;;;;;;;;;;5054777;28;20044;-47
2022/01/29 05:29:56;;;;;;;10.48;4.13;;;;;;;;;;5054781;28;20075;-48
2022/01/29 05:32:22;;;;;;;10.27;3.60;;;;;;;;;;5055035;28;20470;-47
2022/01/29 05:34:49;;;;;;;11.27;4.43;;;;;;;;;;5054979;28;20029;-48
2022/01/29 05:37:17;;;;;;;9.05;3.58;;;;;;;;;;5054687;28;20104;-47
2022/01/29 05:39:43;;;;;;;10.13;3.75;;;;;;;;;;5054524;28;20036;-48
2022/01/29 05:42:09;;;;;;;9.05;4.00;;;;;;;;;;5054670;28;20461;-48
2022/01/29 05:44:35;;;;;;;9.98;3.72;;;;;;;;;;5054698;28;20036;-47
2022/01/29 05:47:02;;;;;;;10.00;4.13;;;;;;;;;;5054010;28;20025;-48
2022/01/29 05:49:28;;;;;;;7.85;3.88;;;;;;;;;;5054562;28;20056;-47
2022/01/29 05:51:54;;;;;;;17.33;5.32;;;;;;;;;;5054462;28;20116;-48
2022/01/29 05:54:20;;;;;;;8.85;3.38;;;;;;;;;;5054341;28;20469;-47
2022/01/29 05:56:47;;;;;;;10.60;3.30;;;;;;;;;;5054292;28;20029;-47
2022/01/29 05:59:13;;;;;;;9.30;3.65;;;;;;;;;;5054103;28;20025;-48
2022/01/29 06:01:39;;;;;;;9.98;3.88;;;;;;;;;;5054657;28;20040;-48
2022/01/29 06:04:06;;;;;;;9.57;3.90;;;;;;;;;;5054303;28;20025;-49
2022/01/29 06:06:32;;;;;;;9.15;4.45;;;;;;;;;;5054291;28;20473;-48
2022/01/29 06:09:01;;;;;;;7.72;3.55;;;;;;;;;;5054070;28;20029;-49
2022/01/29 06:11:28;;;;;;;10.35;3.70;;;;;;;;;;5054195;28;20094;-48
2022/01/29 06:13:54;;;;;;;14.32;4.95;;;;;;;;;;5054248;28;20025;-49
2022/01/29 06:16:20;;;;;;;13.07;5.40;;;;;;;;;;5053951;28;20477;-48
2022/01/29 06:18:46;;;;;;;15.65;5.40;;;;;;;;;;5053852;28;20099;-48
2022/01/29 06:21:15;;;;;;;12.90;5.00;;;;;;;;;;5053918;28;20052;-48
2022/01/29 06:23:42;;;;;;;11.60;4.28;;;;;;;;;;5053912;28;20420;-48
2022/01/29 06:26:09;;;;;;;10.35;4.38;;;;;;;;;;5053708;28;20024;-47
2022/01/29 06:28:35;;;;;;;9.77;4.20;;;;;;;;;;5053532;28;20040;-47
2022/01/29 06:31:02;;;;;;;9.68;4.40;;;;;;;;;;5053668;28;20033;-47
2022/01/29 06:33:30;;;;;;;13.30;4.25;;;;;;;;;;5053733;28;20059;-47
2022/01/29 06:35:56;;;;;;;13.15;3.97;;;;;;;;;;5053641;28;20388;-47
2022/01/29 06:38:23;;;;;;;13.68;3.83;;;;;;;;;;5053598;28;20029;-48
2022/01/29 06:40:49;;;;;;;11.15;5.32;;;;;;;;;;5053617;28;20041;-47
2022/01/29 06:43:15;;;;;;;11.55;5.38;;;;;;;;;;5053434;28;20079;-46
2022/01/29 06:45:42;;;;;;;15.50;5.00;;;;;;;;;;5053451;28;20036;-48
2022/01/29 06:48:11;;;;;;;14.07;6.30;;;;;;;;;;5053480;28;20024;-47
2022/01/29 06:50:37;;;;;;;12.10;5.00;;;;;;;;;;5053521;28;20047;-48
2022/01/29 06:53:04;;;;;;;13.93;6.18;;;;;;;;;;5053335;28;20017;-49
2022/01/29 06:55:30;;;;;;;15.13;6.35;;;;;;;;;;5053283;28;20033;-48
2022/01/29 06:57:56;;;;;;;14.70;5.15;;;;;;;;;;5052942;28;20033;-51
2022/01/29 07:00:22;;;;;;;17.35;5.22;;;;;;;;;;5053243;28;20029;-50
2022/01/29 07:02:48;;;;;;;11.80;4.35;;;;;;;;;;5053050;28;20488;-47
2022/01/29 07:05:14;;;;;;;30.35;12.43;;;;;;;;;;5053180;28;20055;-49
2022/01/29 07:07:45;;;;;;;29.02;11.25;;;;;;;;;;5053042;28;20100;-47
2022/01/29 07:10:11;;;;;;;44.40;23.48;;;;;;;;;;5053165;28;20021;-49
2022/01/29 07:12:38;;;;;;;22.95;10.40;;;;;;;;;;5052959;28;20032;-49
2022/01/29 07:15:05;;;;;;;13.50;5.80;;;;;;;;;;5052983;28;20082;-49
2022/01/29 07:17:31;;;;;;;17.52;6.70;;;;;;;;;;5053064;28;20028;-47
2022/01/29 07:19:57;;;;;;;17.35;5.70;;;;;;;;;;5053151;28;20385;-47
2022/01/29 07:22:23;;;;;;;17.05;6.72;;;;;;;;;;5053005;28;20021;-49
2022/01/29 07:24:49;;;;;;;21.38;9.30;;;;;;;;;;5052928;28;20021;-48
2022/01/29 07:27:15;;;;;;;15.45;6.78;;;;;;;;;;5052731;28;20498;-47
2022/01/29 07:29:42;;;;;;;17.63;7.55;;;;;;;;;;5052695;28;20049;-50
2022/01/29 07:32:08;;;;;;;15.73;6.45;;;;;;;;;;5051650;28;20120;-49
2022/01/29 07:34:34;;;;;;;13.63;4.93;;;;;;;;;;5052944;28;20032;-49
2022/01/29 07:37:00;;;;;;;21.52;8.48;;;;;;;;;;5052961;28;20028;-47
2022/01/29 07:39:27;;;;;;;24.45;9.48;;;;;;;;;;5052782;28;20164;-48
2022/01/29 07:41:53;;;;;;;29.95;13.15;;;;;;;;;;5051543;28;20041;-50
2022/01/29 07:44:19;;;;;;;24.95;8.20;;;;;;;;;;5052939;28;20099;-47
2022/01/29 07:46:46;;;;;;;17.63;8.27;;;;;;;;;;5052706;28;20039;-48
2022/01/29 07:49:12;;;;;;;21.52;8.95;;;;;;;;;;5052881;28;20021;-49
2022/01/29 07:51:39;;;;;;;18.92;7.85;;;;;;;;;;5052876;28;20025;-47
2022/01/29 07:54:05;;;;;;;26.42;11.60;;;;;;;;;;5052885;28;20021;-47
2022/01/29 07:56:31;;;;;;;19.98;9.20;;;;;;;;;;5052629;28;20104;-47
2022/01/29 07:58:57;;;;;;;17.13;7.57;;;;;;;;;;5052390;28;20021;-47
2022/01/29 08:01:23;;;;;;;18.48;8.30;;;;;;;;;;5052674;28;20116;-46
2022/01/29 08:03:50;;;;;;;19.55;9.02;;;;;;;;;;5052594;28;20022;-52
2022/01/29 08:06:26;;;;;;;28.02;9.55;;;;;;;;;;5052751;28;20116;-48
2022/01/29 08:08:52;;;;;;;26.88;11.43;;;;;;;;;;5052575;28;20048;-50
2022/01/29 08:11:18;;;;;;;20.08;8.88;;;;;;;;;;5055925;28;20044;-50
2022/01/29 08:13:46;;;;;;;23.08;10.23;;;;;;;;;;5056466;28;20361;-47
2022/01/29 08:16:12;;;;;;;26.00;12.50;;;;;;;;;;5056425;28;20029;-49
2022/01/29 08:18:38;;;;;;;26.25;13.90;;;;;;;;;;5056305;28;20028;-47
2022/01/29 08:21:04;;;;;;;15.88;7.35;;;;;;;;;;5056016;28;20037;-49
2022/01/29 08:23:30;;;;;;;23.23;12.05;;;;;;;;;;5056194;28;20060;-48
2022/01/29 08:25:56;;;;;;;20.58;10.40;;;;;;;;;;5055992;28;20473;-49
2022/01/29 08:28:24;;;;;;;20.63;8.55;;;;;;;;;;5055902;28;20163;-47
2022/01/29 08:30:50;;;;;;;19.20;8.93;;;;;;;;;;5055948;28;20531;-48
2022/01/29 08:33:19;;;;;;;18.13;8.82;;;;;;;;;;5055960;28;20052;-49
2022/01/29 08:35:48;;;;;;;14.20;6.68;;;;;;;;;;5056030;28;20029;-47
2022/01/29 08:38:14;;;;;;;12.50;6.55;;;;;;;;;;5055824;28;20456;-49
2022/01/29 08:40:41;;;;;;;16.45;9.02;;;;;;;;;;5055627;28;20033;-48
2022/01/29 08:43:07;;;;;;;45.35;21.67;;;;;;;;;;5055708;28;20469;-49
2022/01/29 08:45:33;;;;;;;23.83;9.77;;;;;;;;;;5055611;28;20033;-48
2022/01/29 08:47:59;;;;;;;53.25;25.55;;;;;;;;;;5055748;28;20048;-48
2022/01/29 08:50:26;;;;;;;18.80;8.90;;;;;;;;;;5055779;28;20033;-49
2022/01/29 08:52:52;;;;;;;23.75;8.73;;;;;;;;;;5055511;28;20025;-48
2022/01/29 08:55:18;;;;;;;21.55;8.27;;;;;;;;;;5055171;28;20029;-48
2022/01/29 08:57:45;;;;;;;14.98;7.18;;;;;;;;;;5055596;28;20032;-47
2022/01/29 09:00:12;;;;;;;17.08;7.53;;;;;;;;;;5055268;28;20033;-46
2022/01/29 09:02:38;;;;;;;18.42;6.50;;;;;;;;;;5055596;28;20052;-47
2022/01/29 09:05:05;;;;;;;14.57;6.85;;;;;;;;;;5055353;28;20040;-48
2022/01/29 09:07:31;;;;;;;9.32;4.93;;;;;;;;;;5055257;28;20206;-48
2022/01/29 09:09:59;;;;;;;8.88;4.30;;;;;;;;;;5055438;28;20319;-48
2022/01/29 09:12:26;;;;;;;12.32;5.90;;;;;;;;;;5055413;28;20037;-48
2022/01/29 09:14:52;;;;;;;13.73;5.82;;;;;;;;;;5055105;28;20021;-46
2022/01/29 09:17:18;;;;;;;13.02;5.60;;;;;;;;;;5054983;28;20033;-46
2022/01/29 09:19:44;;;;;;;8.63;4.68;;;;;;;;;;5055050;28;20024;-47
2022/01/29 09:22:10;;;;;;;11.70;3.55;;;;;;;;;;5053168;28;20064;-46
2022/01/29 09:24:39;;;;;;;10.13;4.68;;;;;;;;;;5054483;28;20029;-47
2022/01/29 09:27:05;;;;;;;36.08;17.88;;;;;;;;;;5054288;28;20025;-48
2022/01/29 09:29:32;;;;;;;46.53;21.25;;;;;;;;;;5054171;28;20045;-48
2022/01/29 09:31:58;;;;;;;28.08;13.18;;;;;;;;;;5054465;28;20025;-48
2022/01/29 09:34:24;;;;;;;32.63;15.38;;;;;;;;;;5054293;28;20032;-49
2022/01/29 09:36:50;;;;;;;39.05;19.38;;;;;;;;;;5054446;28;20028;-49
2022/01/29 09:39:16;;;;;;;21.90;11.25;;;;;;;;;;5054218;28;20051;-48
2022/01/29 09:41:44;;;;;;;32.88;11.70;;;;;;;;;;5054001;28;20032;-48
2022/01/29 09:44:10;;;;;;;14.07;6.47;;;;;;;;;;5054210;28;20017;-53
2022/01/29 09:46:36;;;;;;;14.68;7.47;;;;;;;;;;5052632;28;20477;-47
2022/01/29 09:49:02;;;;;;;16.73;8.25;;;;;;;;;;5054088;28;20059;-47
2022/01/29 09:51:28;;;;;;;42.20;23.40;;;;;;;;;;5053938;28;20013;-48
2022/01/29 09:53:54;;;;;;;26.10;15.38;;;;;;;;;;5053961;28;20009;-47
2022/01/29 09:56:20;;;;;;;22.63;7.72;;;;;;;;;;5053830;28;20032;-47
2022/01/29 09:58:46;;;;;;;31.77;17.42;;;;;;;;;;5053654;28;20044;-48
2022/01/29 10:01:13;;;;;;;16.20;9.13;;;;;;;;;;5053715;28;20029;-47
2022/01/29 10:03:39;;;;;;;15.20;6.50;;;;;;;;;;5053564;28;20024;-49
2022/01/29 10:06:05;;;;;;;15.80;7.80;;;;;;;;;;5054240;28;20029;-49
2022/01/29 10:08:42;;;;;;;8.55;4.32;;;;;;;;;;5053883;28;20021;-48
2022/01/29 10:11:18;;;;;;;15.32;5.45;;;;;;;;;;5053503;28;20025;-47
2022/01/29 10:13:44;;;;;;;24.17;14.15;;;;;;;;;;5053375;28;20071;-49
2022/01/29 10:16:12;;;;;;;58.90;25.33;;;;;;;;;;5052321;28;20032;-48
2022/01/29 10:18:47;;;;;;;69.43;37.40;;;;;;;;;;5053525;28;20438;-50
2022/01/29 10:21:23;;;;;;;102.90;57.00;;;;;;;;;;5053171;28;20028;-50
2022/01/29 10:24:00;;;;;;;29.73;16.05;;;;;;;;;;5053202;28;20066;-49
2022/01/29 10:26:34;;;;;;;57.63;31.02;;;;;;;;;;5053322;28;20119;-48
2022/01/29 10:29:01;;;;;;;28.35;15.93;;;;;;;;;;5053046;28;20079;-49
2022/01/29 10:31:39;;;;;;;26.20;13.85;;;;;;;;;;5053238;28;20579;-49
2022/01/29 10:34:17;;;;;;;36.00;19.33;;;;;;;;;;5053165;28;20025;-48
2022/01/29 10:36:43;;;;;;;47.63;19.63;;;;;;;;;;5053599;28;20025;-49
2022/01/29 10:39:09;;;;;;;43.08;24.48;;;;;;;;;;5053419;28;20021;-48
2022/01/29 10:41:35;;;;;;;50.28;24.98;;;;;;;;;;5053379;28;20119;-48
2022/01/29 10:44:20;;;;;;;65.47;37.22;;;;;;;;;;5053445;28;20064;-47
2022/01/29 10:46:48;;;;;;;32.20;17.17;;;;;;;;;;5050231;28;20548;-47
2022/01/29 10:49:25;;;;;;;43.92;21.48;;;;;;;;;;5047713;28;20470;-48
2022/01/29 10:52:05;;;;;;;20.33;11.52;;;;;;;;;;5050469;28;20032;-47
2022/01/29 10:54:32;;;;;;;13.50;5.32;;;;;;;;;;5047039;28;20511;-47
2022/01/29 10:56:59;;;;;;;46.42;26.17;;;;;;;;;;5049605;28;20049;-48
2022/01/29 10:59:27;;;;;;;30.13;18.80;;;;;;;;;;5052423;28;20029;-48
2022/01/29 11:01:55;;;;;;;48.50;27.73;;;;;;;;;;5052407;28;20029;-48
2022/01/29 11:04:21;;;;;;;25.80;12.77;;;;;;;;;;5052650;28;20028;-49
2022/01/29 11:06:48;;;;;;;34.72;17.52;;;;;;;;;;5052353;28;20480;-47
2022/01/29 11:09:15;;;;;;;27.42;11.85;;;;;;;;;;5052585;28;20025;-48
2022/01/29 11:11:42;;;;;;;16.75;8.13;;;;;;;;;;5052493;28;20036;-47
2022/01/29 11:14:10;;;;;;;24.02;11.35;;;;;;;;;;5052421;28;20100;-47
2022/01/29 11:16:36;;;;;;;20.85;9.27;;;;;;;;;;5052404;28;20025;-47
2022/01/29 11:19:03;;;;;;;19.88;12.23;;;;;;;;;;5052522;28;20108;-47
2022/01/29 11:21:29;;;;;;;47.75;26.08;;;;;;;;;;5052523;28;20179;-47
2022/01/29 11:23:55;;;;;;;34.15;12.65;;;;;;;;;;5052259;28;20473;-47
2022/01/29 11:26:22;;;;;;;41.20;18.02;;;;;;;;;;5052318;28;20029;-47
2022/01/29 11:28:48;;;;;;;63.78;33.67;;;;;;;;;;5051651;28;20107;-47
2022/01/29 11:31:14;;;;;;;34.65;20.08;;;;;;;;;;5052210;28;20036;-47
2022/01/29 11:33:58;;;;;;;20.20;10.40;;;;;;;;;;5050982;28;20107;-48
2022/01/29 11:36:43;;;;;;;15.57;6.45;;;;;;;;;;5052234;28;20025;-47
2022/01/29 11:39:29;;;;;;;18.90;7.13;;;;;;;;;;5052215;28;20330;-49
2022/01/29 11:42:13;;;;;;;14.07;5.63;;;;;;;;;;5052407;28;20037;-48
2022/01/29 11:44:43;;;;;;;11.77;5.28;;;;;;;;;;5052930;28;20028;-47
2022/01/29 11:47:25;;;;;;;12.90;6.43;;;;;;;;;;5056079;28;20424;-49
2022/01/29 11:50:11;;;;;;;26.52;13.65;;;;;;;;;;5056065;28;20052;-49
2022/01/29 11:52:52;;;;;;;44.55;26.98;;;;;;;;;;5055792;28;20037;-47
2022/01/29 11:55:33;;;;;;;43.47;25.40;;;;;;;;;;5056006;28;20029;-47
2022/01/29 11:58:16;;;;;;;23.97;11.33;;;;;;;;;;5055684;28;20029;-48
2022/01/29 12:00:45;;;;;;;16.38;8.35;;;;;;;;;;5055693;28;20045;-48
2022/01/29 12:03:30;;;;;;;19.95;8.75;;;;;;;;;;5055334;28;20083;-49
2022/01/29 12:08:41;;;;;;;16.40;8.25;;;;;;;;;;5053645;28;20029;-47
2022/01/29 12:11:10;;;;;;;17.00;11.23;;;;;;;;;;5052533;28;20032;-47
2022/01/29 12:13:36;;;;;;;36.35;16.10;;;;;;;;;;5052867;28;20531;-48
2022/01/29 12:16:03;;;;;;;23.98;10.85;;;;;;;;;;5054996;28;20027;-46
2022/01/29 12:18:31;;;;;;;16.08;7.18;;;;;;;;;;5054946;28;20499;-48
2022/01/29 12:20:57;;;;;;;15.75;7.47;;;;;;;;;;5052559;28;20389;-48
2022/01/29 12:23:24;;;;;;;47.50;24.25;;;;;;;;;;5054687;28;20024;-47
2022/01/29 12:25:54;;;;;;;31.25;16.63;;;;;;;;;;5054941;28;20170;-48
2022/01/29 12:28:20;;;;;;;16.35;7.35;;;;;;;;;;5054379;28;20029;-48
2022/01/29 12:30:46;;;;;;;20.98;10.35;;;;;;;;;;5054892;28;20078;-48
2022/01/29 12:33:17;;;;;;;21.80;12.07;;;;;;;;;;5054785;28;20385;-48
2022/01/29 12:35:53;;;;;;;18.52;9.35;;;;;;;;;;5054631;28;20021;-47
2022/01/29 12:38:25;;;;;;;29.38;6.95;;;;;;;;;;5052418;28;20037;-47
2022/01/29 12:41:03;;;;;;;14.23;7.22;;;;;;;;;;5054630;28;20087;-48
2022/01/29 12:43:39;;;;;;;19.10;8.07;;;;;;;;;;5054996;28;20036;-48
2022/01/29 12:46:11;;;;;;;13.90;6.75;;;;;;;;;;5053366;28;20481;-47
2022/01/29 12:48:38;;;;;;;25.40;7.65;;;;;;;;;;5052251;28;20074;-48
2022/01/29 12:51:11;;;;;;;12.25;5.38;;;;;;;;;;5054898;28;20419;-49
2022/01/29 12:53:37;;;;;;;23.05;6.70;;;;;;;;;;5055532;28;20102;-49
2022/01/29 12:56:11;;;;;;;15.38;6.10;;;;;;;;;;5055038;28;20052;-47
2022/01/29 12:58:41;;;;;;;40.53;19.60;;;;;;;;;;5054742;28;20180;-50
2022/01/29 13:01:12;;;;;;;52.95;24.70;;;;;;;;;;5054701;28;20044;-48
2022/01/29 13:03:38;;;;;;;61.92;32.35;;;;;;;;;;5054953;28;20381;-49
2022/01/29 13:06:09;;;;;;;89.60;50.70;;;;;;;;;;5054760;28;20021;-48
2022/01/29 13:08:35;;;;;;;77.43;43.05;;;;;;;;;;5052493;28;20025;-49
2022/01/29 13:11:01;;;;;;;124.65;67.45;;;;;;;;;;5036659;28;20392;-49
2022/01/29 13:13:31;;;;;;;52.22;27.80;;;;;;;;;;5054618;28;20041;-46
2022/01/29 13:15:57;;;;;;;56.08;29.80;;;;;;;;;;5054586;28;20120;-50
2022/01/29 13:18:24;;;;;;;61.33;32.33;;;;;;;;;;5054693;28;20025;-50
2022/01/29 13:20:50;;;;;;;56.92;31.52;;;;;;;;;;5054549;28;20384;-49
2022/01/29 13:23:17;;;;;;;33.53;17.98;;;;;;;;;;5054539;28;20017;-49
2022/01/29 13:25:43;;;;;;;54.65;28.33;;;;;;;;;;5054528;28;20029;-50
2022/01/29 13:28:15;;;;;;;20.17;8.63;;;;;;;;;;5054633;28;20041;-49
2022/01/29 13:30:44;;;;;;;16.23;7.60;;;;;;;;;;5054824;28;20100;-50
2022/01/29 13:33:22;;;;;;;20.05;7.70;;;;;;;;;;5054684;28;20135;-50
2022/01/29 13:35:53;;;;;;;15.05;7.80;;;;;;;;;;5053576;28;20396;-50
2022/01/29 13:38:22;;;;;;;17.10;7.83;;;;;;;;;;5054697;28;20044;-50
2022/01/29 13:40:55;;;;;;;21.45;9.52;;;;;;;;;;5054589;28;20047;-47
2022/01/29 13:43:41;;;;;;;24.50;8.43;;;;;;;;;;5054490;28;20025;-48
2022/01/29 13:46:16;;;;;;;24.23;8.98;;;;;;;;;;5054700;28;20029;-49
2022/01/29 13:48:55;;;;;;;24.42;12.05;;;;;;;;;;5054453;28;20017;-49
2022/01/29 13:51:29;;;;;;;24.55;9.57;;;;;;;;;;5054399;28;20020;-49
2022/01/29 13:53:58;;;;;;;20.77;7.80;;;;;;;;;;5053060;28;20040;-47
2022/01/29 13:56:25;;;;;;;22.40;7.78;;;;;;;;;;5054496;28;20051;-49
2022/01/29 13:58:51;;;;;;;21.17;9.80;;;;;;;;;;5050710;28;20033;-47
2022/01/29 14:01:36;;;;;;;16.80;7.35;;;;;;;;;;5023923;28;20045;-48
2022/01/29 14:04:05;;;;;;;20.20;8.27;;;;;;;;;;5022208;28;20172;-48
2022/01/29 14:06:41;;;;;;;21.15;9.48;;;;;;;;;;5022010;28;20030;-48
2022/01/29 14:09:07;;;;;;;20.73;8.25;;;;;;;;;;5022307;28;20029;-47
2022/01/29 14:11:52;;;;;;;18.13;8.27;;;;;;;;;;5022312;28;20026;-47
2022/01/29 14:14:20;;;;;;;22.52;8.88;;;;;;;;;;5022101;28;20065;-49
2022/01/29 14:16:49;;;;;;;17.70;7.07;;;;;;;;;;5021749;28;20027;-49
2022/01/29 14:19:16;;;;;;;34.72;15.57;;;;;;;;;;5022854;28;20033;-49
2022/01/29 14:21:42;;;;;;;29.65;10.82;;;;;;;;;;5022647;28;20040;-48
2022/01/29 14:24:10;;;;;;;25.77;11.40;;;;;;;;;;5022122;28;20446;-50
2022/01/29 14:26:37;;;;;;;29.52;12.73;;;;;;;;;;5021846;28;20030;-48
2022/01/29 14:29:03;;;;;;;28.45;13.07;;;;;;;;;;5021501;28;20160;-49
2022/01/29 14:31:29;;;;;;;33.45;12.65;;;;;;;;;;5021709;28;20129;-48
2022/01/29 14:33:55;;;;;;;30.65;13.95;;;;;;;;;;5021893;28;20025;-49
2022/01/29 14:36:21;;;;;;;22.00;11.02;;;;;;;;;;5022045;28;20127;-49
2022/01/29 14:38:52;;;;;;;25.77;12.00;;;;;;;;;;5022438;28;20021;-48
2022/01/29 14:41:18;;;;;;;22.00;9.93;;;;;;;;;;5022633;28;20525;-50
2022/01/29 14:43:46;;;;;;;44.00;17.98;;;;;;;;;;5021424;28;20029;-49